createdAt,value
2022-11-16T00:01:41.361Z,84.19
2022-11-16T00:04:09.742Z,84.13
2022-11-16T00:06:36.186Z,83.83
2022-11-16T00:09:22.137Z,84.17
2022-11-16T00:11:51.251Z,84.24
2022-11-16T00:14:19.206Z,84.38
2022-11-16T00:16:45.658Z,84.35
2022-11-16T00:19:12.919Z,84.03
2022-11-16T00:21:39.926Z,84.63
2022-11-16T00:24:06.799Z,84.89
2022-11-16T00:26:33.369Z,84.39
2022-11-16T00:29:00.249Z,84.71
2022-11-16T00:31:27.071Z,84.61
2022-11-16T00:33:54.036Z,84.21
2022-11-16T00:36:20.950Z,84.35
2022-11-16T00:38:47.916Z,84.51
2022-11-16T00:41:14.437Z,84.52
2022-11-16T00:43:40.979Z,84.63
2022-11-16T00:46:07.469Z,84.87
2022-11-16T00:48:34.156Z,84.93
2022-11-16T00:51:01.018Z,84.95
2022-11-16T00:53:27.765Z,84.38
2022-11-16T00:55:54.266Z,85.30
2022-11-16T00:58:21.106Z,85.32
2022-11-16T01:00:53.992Z,85.68
2022-11-16T01:03:20.643Z,85.83
2022-11-16T01:05:47.209Z,85.06
2022-11-16T01:08:14.502Z,85.02
2022-11-16T01:10:41.578Z,85.00
2022-11-16T01:13:11.243Z,85.17
2022-11-16T01:15:37.871Z,85.72
2022-11-16T01:18:04.335Z,86.09
2022-11-16T01:20:30.875Z,85.91
2022-11-16T01:22:57.484Z,85.56
2022-11-16T01:25:24.136Z,85.82
2022-11-16T01:27:50.751Z,85.72
2022-11-16T01:30:24.716Z,85.66
2022-11-16T01:33:02.037Z,85.86
2022-11-16T01:35:28.668Z,85.79
2022-11-16T01:37:55.360Z,85.94
2022-11-16T01:40:22.512Z,85.83
2022-11-16T01:42:48.950Z,85.83
2022-11-16T01:45:22.568Z,85.70
2022-11-16T01:47:53.604Z,86.13
2022-11-16T01:50:22.854Z,85.70
2022-11-16T01:53:04.103Z,85.58
2022-11-16T01:55:39.846Z,85.99
2022-11-16T01:58:18.158Z,85.83
2022-11-16T02:00:46.958Z,85.74
2022-11-16T02:03:27.593Z,85.84
2022-11-16T02:06:28.415Z,85.45
2022-11-16T02:09:49.444Z,85.50
2022-11-16T02:12:31.218Z,85.50
2022-11-16T02:15:09.793Z,85.31
2022-11-16T02:18:01.767Z,86.06
2022-11-16T02:20:41.581Z,86.22
2022-11-16T02:23:47.565Z,86.06
2022-11-16T02:26:29.094Z,86.11
2022-11-16T02:29:19.005Z,85.77
2022-11-16T02:31:55.402Z,86.29
2022-11-16T02:34:24.678Z,86.31
2022-11-16T02:36:54.641Z,86.18
2022-11-16T02:39:27.199Z,85.67
2022-11-16T02:41:55.975Z,86.20
2022-11-16T02:44:37.102Z,86.23
2022-11-16T02:47:09.203Z,86.66
2022-11-16T02:49:43.504Z,86.95
2022-11-16T02:52:12.166Z,86.70
2022-11-16T02:54:38.627Z,86.77
2022-11-16T02:57:05.026Z,86.47
2022-11-16T02:59:42.901Z,86.31
2022-11-16T03:02:48.573Z,86.50
2022-11-16T03:05:20.277Z,86.21
2022-11-16T03:08:21.176Z,86.28
2022-11-16T03:11:14.387Z,86.25
2022-11-16T03:13:42.814Z,85.81
2022-11-16T03:16:34.400Z,85.62
2022-11-16T03:19:05.604Z,85.40
2022-11-16T03:21:47.151Z,85.49
2022-11-16T03:24:14.717Z,85.37
2022-11-16T03:26:52.752Z,86.01
2022-11-16T03:29:39.139Z,85.89
2022-11-16T03:32:18.930Z,85.91
2022-11-16T03:34:56.707Z,86.24
2022-11-16T03:37:25.748Z,85.84
2022-11-16T03:39:53.749Z,85.95
2022-11-16T03:42:25.942Z,85.50
2022-11-16T03:44:53.577Z,85.67
2022-11-16T03:47:20.143Z,85.57
2022-11-16T03:49:47.672Z,85.95
2022-11-16T03:52:17.779Z,86.69
2022-11-16T03:54:45.143Z,86.19
2022-11-16T03:57:15.589Z,86.49
2022-11-16T03:59:45.920Z,86.27
2022-11-16T04:02:12.863Z,86.21
2022-11-16T04:04:57.878Z,86.48
2022-11-16T04:07:43.208Z,86.89
2022-11-16T04:10:28.933Z,86.47
2022-11-16T04:13:14.610Z,86.65
2022-11-16T04:15:59.682Z,86.69
2022-11-16T04:18:45.011Z,86.26
2022-11-16T04:21:43.233Z,86.89
2022-11-16T04:24:16.371Z,86.84
2022-11-16T04:27:04.545Z,86.21
2022-11-16T04:29:31.971Z,86.61
2022-11-16T04:32:17.159Z,86.22
2022-11-16T04:35:02.371Z,86.50
2022-11-16T04:37:49.616Z,86.02
2022-11-16T04:40:24.106Z,86.22
2022-11-16T04:42:54.796Z,86.02
2022-11-16T04:45:41.375Z,85.68
2022-11-16T04:48:09.678Z,85.52
2022-11-16T04:50:37.934Z,85.73
2022-11-16T04:53:05.478Z,85.83
2022-11-16T04:55:38.303Z,85.68
2022-11-16T04:58:05.134Z,85.38
2022-11-16T05:00:32.372Z,85.67
2022-11-16T05:03:01.512Z,85.90
2022-11-16T05:05:29.006Z,86.14
2022-11-16T05:07:55.865Z,85.96
2022-11-16T05:10:27.003Z,86.05
2022-11-16T05:12:54.396Z,85.87
2022-11-16T05:15:22.277Z,86.39
2022-11-16T05:17:49.946Z,86.05
2022-11-16T05:20:38.787Z,86.01
2022-11-16T05:23:26.705Z,85.85
2022-11-16T05:25:54.287Z,85.54
2022-11-16T05:28:21.627Z,85.84
2022-11-16T05:30:48.164Z,85.99
2022-11-16T05:33:19.592Z,85.97
2022-11-16T05:35:46.206Z,85.69
2022-11-16T05:38:13.937Z,85.72
2022-11-16T05:40:45.236Z,85.92
2022-11-16T05:43:11.993Z,86.19
2022-11-16T05:45:44.778Z,86.27
2022-11-16T05:48:14.207Z,85.90
2022-11-16T05:50:43.042Z,86.00
2022-11-16T05:53:16.857Z,85.63
2022-11-16T05:55:43.467Z,85.65
2022-11-16T05:58:10.516Z,85.38
2022-11-16T06:00:37.634Z,85.19
2022-11-16T06:03:05.387Z,85.12
2022-11-16T06:05:40.062Z,85.03
2022-11-16T06:08:07.522Z,84.90
2022-11-16T06:10:33.969Z,85.28
2022-11-16T06:13:00.414Z,85.97
2022-11-16T06:15:26.892Z,85.56
2022-11-16T06:17:53.339Z,85.93
2022-11-16T06:20:21.016Z,85.78
2022-11-16T06:22:47.479Z,85.50
2022-11-16T06:25:14.373Z,85.98
2022-11-16T06:27:43.359Z,86.06
2022-11-16T06:30:12.752Z,85.56
2022-11-16T06:32:40.048Z,85.29
2022-11-16T06:35:07.564Z,85.51
2022-11-16T06:37:34.557Z,85.50
2022-11-16T06:40:01.036Z,85.58
2022-11-16T06:42:31.241Z,85.16
2022-11-16T06:44:59.058Z,84.83
2022-11-16T06:47:29.710Z,85.25
2022-11-16T06:49:56.226Z,85.29
2022-11-16T06:52:23.661Z,85.55
2022-11-16T06:54:50.519Z,85.84
2022-11-16T06:57:17.602Z,85.68
2022-11-16T06:59:44.479Z,85.42
2022-11-16T07:02:11.717Z,84.65
2022-11-16T07:04:39.062Z,84.56
2022-11-16T07:07:05.660Z,84.67
2022-11-16T07:09:34.392Z,85.53
2022-11-16T07:12:01.016Z,85.52
2022-11-16T07:14:33.872Z,85.41
2022-11-16T07:17:08.082Z,85.72
2022-11-16T07:19:36.728Z,85.28
2022-11-16T07:22:04.243Z,85.28
2022-11-16T07:24:31.189Z,84.74
2022-11-16T07:26:57.729Z,84.95
2022-11-16T07:29:26.340Z,84.92
2022-11-16T07:32:13.065Z,84.60
2022-11-16T07:35:11.585Z,84.42
2022-11-16T07:37:39.029Z,84.31
2022-11-16T07:40:07.697Z,84.35
2022-11-16T07:42:34.137Z,84.41
2022-11-16T07:45:07.331Z,84.38
2022-11-16T07:47:38.291Z,84.49
2022-11-16T07:50:07.819Z,84.84
2022-11-16T07:52:35.181Z,84.75
2022-11-16T07:55:07.057Z,84.82
2022-11-16T07:57:34.289Z,85.01
2022-11-16T08:00:05.849Z,85.02
2022-11-16T08:02:45.920Z,84.47
2022-11-16T08:05:17.462Z,84.54
2022-11-16T08:07:44.399Z,85.16
2022-11-16T08:10:11.422Z,84.55
2022-11-16T08:12:39.452Z,84.66
2022-11-16T08:15:07.261Z,84.62
2022-11-16T08:17:33.741Z,84.44
2022-11-16T08:20:02.797Z,84.02
2022-11-16T08:22:29.888Z,83.90
2022-11-16T08:24:56.638Z,84.33
2022-11-16T08:27:24.833Z,84.69
2022-11-16T08:29:53.983Z,84.03
2022-11-16T08:32:20.964Z,83.93
2022-11-16T08:34:47.983Z,83.88
2022-11-16T08:37:14.907Z,83.93
2022-11-16T08:39:43.815Z,83.50
2022-11-16T08:42:10.307Z,83.22
2022-11-16T08:44:38.250Z,83.71
2022-11-16T08:47:09.563Z,83.38
2022-11-16T08:49:43.993Z,83.34
2022-11-16T08:52:15.074Z,83.82
2022-11-16T08:54:42.917Z,84.05
2022-11-16T08:57:10.460Z,83.30
2022-11-16T08:59:38.883Z,83.18
2022-11-16T09:02:10.148Z,83.51
2022-11-16T09:04:37.332Z,83.60
2022-11-16T09:07:04.158Z,82.93
2022-11-16T09:09:30.649Z,83.63
2022-11-16T09:11:57.113Z,83.25
2022-11-16T09:14:23.618Z,83.07
2022-11-16T09:16:50.059Z,83.43
2022-11-16T09:19:16.586Z,83.20
2022-11-16T09:21:45.466Z,83.30
2022-11-16T09:24:11.916Z,82.92
2022-11-16T09:26:38.398Z,82.92
2022-11-16T09:29:04.879Z,83.31
2022-11-16T09:31:34.556Z,82.61
2022-11-16T09:34:01.009Z,82.62
2022-11-16T09:36:28.815Z,82.73
2022-11-16T09:41:53.706Z,83.24
2022-11-16T09:44:57.708Z,82.24
2022-11-16T09:47:36.035Z,82.64
2022-11-16T09:50:05.396Z,83.29
2022-11-16T09:52:36.980Z,83.27
2022-11-16T09:55:36.658Z,82.78
2022-11-16T09:58:11.505Z,82.45
2022-11-16T10:00:41.535Z,83.04
2022-11-16T10:03:13.453Z,82.90
2022-11-16T10:06:15.270Z,82.48
2022-11-16T10:08:45.373Z,82.28
2022-11-16T10:11:27.776Z,82.40
2022-11-16T10:14:17.354Z,82.24
2022-11-16T10:17:17.472Z,82.60
2022-11-16T10:19:55.885Z,82.91
2022-11-16T10:22:28.179Z,82.69
2022-11-16T10:24:59.602Z,83.17
2022-11-16T10:27:45.703Z,82.68
2022-11-16T10:30:18.034Z,82.31
2022-11-16T10:33:00.338Z,82.57
2022-11-16T10:35:37.090Z,82.02
2022-11-16T10:38:13.589Z,82.25
2022-11-16T10:40:40.648Z,82.51
2022-11-16T10:43:18.729Z,82.34
2022-11-16T10:46:03.691Z,81.59
2022-11-16T10:48:46.290Z,82.21
2022-11-16T10:51:12.753Z,82.17
2022-11-16T10:53:42.434Z,81.68
2022-11-16T10:56:25.427Z,81.82
2022-11-16T10:58:56.263Z,81.46
2022-11-16T11:01:43.373Z,81.87
2022-11-16T11:04:24.848Z,81.43
2022-11-16T11:06:52.644Z,82.25
2022-11-16T11:09:23.738Z,82.32
2022-11-16T11:12:40.008Z,81.75
2022-11-16T11:15:13.351Z,81.55
2022-11-16T11:17:42.885Z,81.56
2022-11-16T11:20:16.041Z,81.65
2022-11-16T11:23:04.524Z,81.31
2022-11-16T11:25:34.214Z,81.35
2022-11-16T11:28:28.748Z,81.61
2022-11-16T11:31:25.713Z,81.65
2022-11-16T11:33:55.575Z,81.11
2022-11-16T11:36:34.950Z,81.40
2022-11-16T11:39:05.663Z,81.64
2022-11-16T11:41:38.913Z,81.49
2022-11-16T11:44:15.019Z,81.96
2022-11-16T11:47:56.825Z,81.36
2022-11-16T11:50:16.618Z,81.14
2022-11-16T11:52:52.647Z,81.24
2022-11-16T11:55:19.303Z,81.10
2022-11-16T11:57:49.377Z,81.30
2022-11-16T12:00:18.043Z,81.20
2022-11-16T12:03:24.283Z,81.37
2022-11-16T12:05:53.443Z,80.80
2022-11-16T12:08:41.278Z,81.30
2022-11-16T12:11:33.456Z,80.79
2022-11-16T12:14:15.207Z,80.79
2022-11-16T12:16:59.919Z,80.96
2022-11-16T12:19:44.339Z,80.53
2022-11-16T12:22:33.454Z,81.50
2022-11-16T12:25:24.905Z,81.30
2022-11-16T12:28:04.357Z,82.33
2022-11-16T12:30:34.818Z,81.35
2022-11-16T12:33:10.196Z,81.84
2022-11-16T12:35:58.303Z,82.31
2022-11-16T12:38:50.460Z,81.06
2022-11-16T12:41:22.932Z,82.30
2022-11-16T12:44:04.045Z,82.34
2022-11-16T12:46:54.688Z,82.69
2022-11-16T12:49:39.889Z,82.20
2022-11-16T12:52:46.275Z,82.64
2022-11-16T12:55:26.411Z,83.57
2022-11-16T12:58:12.657Z,83.35
2022-11-16T13:00:53.590Z,82.58
2022-11-16T13:03:33.209Z,83.18
2022-11-16T13:06:08.084Z,83.64
2022-11-16T13:08:43.651Z,84.00
2022-11-16T13:11:22.424Z,84.61
2022-11-16T13:13:55.094Z,84.51
2022-11-16T13:16:24.175Z,84.37
2022-11-16T13:18:52.158Z,84.83
2022-11-16T13:21:45.281Z,84.78
2022-11-16T13:24:39.720Z,85.25
2022-11-16T13:27:30.699Z,85.53
2022-11-16T13:30:21.386Z,85.90
2022-11-16T13:33:02.860Z,85.40
2022-11-16T13:35:29.549Z,86.32
2022-11-16T13:37:55.999Z,85.75
2022-11-16T13:40:32.814Z,85.88
2022-11-16T13:43:11.443Z,85.72
2022-11-16T13:45:50.675Z,85.94
2022-11-16T13:48:38.409Z,86.17
2022-11-16T13:51:09.032Z,86.56
2022-11-16T13:56:49.491Z,86.31
2022-11-16T13:59:16.554Z,86.45
2022-11-16T14:01:57.892Z,86.67
2022-11-16T14:04:55.765Z,86.27
2022-11-16T14:07:47.235Z,86.29
2022-11-16T14:10:36.808Z,86.39
2022-11-16T14:13:04.801Z,86.65
2022-11-16T14:15:32.458Z,86.37
2022-11-16T14:18:00.864Z,86.49
2022-11-16T14:20:49.267Z,86.82
2022-11-16T14:23:27.993Z,86.46
2022-11-16T14:26:08.707Z,87.10
2022-11-16T14:29:04.449Z,86.30
2022-11-16T14:31:47.578Z,86.61
2022-11-16T14:34:20.801Z,86.46
2022-11-16T14:36:51.699Z,86.95
2022-11-16T14:39:27.015Z,86.87
2022-11-16T14:41:55.022Z,86.62
2022-11-16T14:44:24.490Z,85.82
2022-11-16T14:46:51.646Z,86.04
2022-11-16T14:49:20.344Z,85.60
2022-11-16T14:51:54.854Z,85.38
2022-11-16T14:54:30.084Z,85.71
2022-11-16T14:57:02.220Z,85.94
2022-11-16T14:59:30.213Z,85.07
2022-11-16T15:01:57.988Z,85.33
2022-11-16T15:04:26.578Z,85.19
2022-11-16T15:07:03.668Z,85.02
2022-11-16T15:09:37.303Z,84.49
2022-11-16T15:12:26.862Z,85.27
2022-11-16T15:14:56.046Z,84.40
2022-11-16T15:17:30.047Z,84.83
2022-11-16T15:20:16.535Z,84.42
2022-11-16T15:22:48.509Z,84.48
2022-11-16T15:25:26.004Z,84.84
2022-11-16T15:27:52.986Z,85.11
2022-11-16T15:30:22.985Z,85.29
2022-11-16T15:32:52.092Z,84.48
2022-11-16T15:35:32.511Z,84.34
2022-11-16T15:38:19.992Z,84.31
2022-11-16T15:40:55.255Z,84.67
2022-11-16T15:43:24.967Z,84.51
2022-11-16T15:45:52.902Z,84.02
2022-11-16T15:48:22.949Z,84.56
2022-11-16T15:51:05.188Z,84.65
2022-11-16T15:53:42.804Z,84.50
2022-11-16T15:56:17.170Z,83.97
2022-11-16T15:58:44.057Z,83.25
2022-11-16T16:01:13.072Z,83.11
2022-11-16T16:03:51.120Z,83.10
2022-11-16T16:06:47.960Z,83.43
2022-11-16T16:09:28.084Z,83.45
2022-11-16T16:12:16.564Z,82.78
2022-11-16T16:14:43.446Z,83.02
2022-11-16T16:17:12.468Z,83.33
2022-11-16T16:19:43.086Z,83.19
2022-11-16T16:22:26.299Z,83.57
2022-11-16T16:24:53.579Z,83.47
2022-11-16T16:27:25.353Z,83.15
2022-11-16T16:29:57.247Z,83.44
2022-11-16T16:32:29.577Z,83.27
2022-11-16T16:34:58.134Z,83.41
2022-11-16T16:37:32.690Z,83.67
2022-11-16T16:39:59.999Z,83.64
2022-11-16T16:42:26.750Z,84.29
2022-11-16T16:44:53.676Z,85.22
2022-11-16T16:47:20.934Z,84.77
2022-11-16T16:49:48.866Z,84.48
2022-11-16T16:52:16.030Z,84.20
2022-11-16T16:54:42.886Z,83.79
2022-11-16T16:57:14.637Z,83.31
2022-11-16T16:59:41.651Z,83.54
2022-11-16T17:02:12.939Z,83.33
2022-11-16T17:04:39.614Z,83.39
2022-11-16T17:07:06.464Z,83.37
2022-11-16T17:09:33.015Z,83.83
2022-11-16T17:12:00.155Z,84.59
2022-11-16T17:14:26.624Z,84.53
2022-11-16T17:16:53.092Z,85.20
2022-11-16T17:19:20.891Z,84.20
2022-11-16T17:21:47.416Z,84.00
2022-11-16T17:24:13.856Z,83.78
2022-11-16T17:26:41.108Z,84.75
2022-11-16T17:29:07.574Z,85.04
2022-11-16T17:31:34.035Z,85.01
2022-11-16T17:34:00.526Z,85.37
2022-11-16T17:36:26.958Z,84.04
2022-11-16T17:38:53.667Z,84.27
2022-11-16T17:41:23.815Z,84.63
2022-11-16T17:43:52.960Z,84.96
2022-11-16T17:46:21.530Z,85.23
2022-11-16T17:48:49.003Z,84.43
2022-11-16T17:51:18.805Z,83.56
2022-11-16T17:53:45.428Z,84.46
2022-11-16T17:56:13.961Z,84.15
2022-11-16T17:58:40.908Z,84.18
2022-11-16T18:01:07.589Z,83.69
2022-11-16T18:03:38.614Z,83.45
2022-11-16T18:06:06.951Z,84.24
2022-11-16T18:08:34.600Z,84.51
2022-11-16T18:11:08.295Z,84.83
2022-11-16T18:13:35.878Z,84.65
2022-11-16T18:16:23.930Z,84.92
2022-11-16T18:18:58.579Z,84.22
2022-11-16T18:21:25.672Z,84.43
2022-11-16T18:23:52.655Z,84.21
2022-11-16T18:26:22.390Z,84.41
2022-11-16T18:28:49.857Z,84.46
2022-11-16T18:31:18.985Z,84.41
2022-11-16T18:33:46.153Z,83.98
2022-11-16T18:36:12.729Z,83.59
2022-11-16T18:38:39.544Z,84.48
2022-11-16T18:41:11.830Z,83.77
2022-11-16T18:43:47.061Z,84.20
2022-11-16T18:46:13.477Z,84.20
2022-11-16T18:48:40.847Z,84.01
2022-11-16T18:51:07.311Z,84.37
2022-11-16T18:53:34.277Z,84.87
2022-11-16T18:56:01.036Z,84.81
2022-11-16T19:01:18.361Z,85.11
2022-11-16T19:03:45.104Z,84.95
2022-11-16T19:06:12.109Z,84.27
2022-11-16T19:08:40.293Z,84.12
2022-11-16T19:11:12.636Z,84.05
2022-11-16T19:13:40.708Z,84.10
2022-11-16T19:16:08.571Z,83.46
2022-11-16T19:18:36.318Z,83.96
2022-11-16T19:21:10.417Z,83.98
2022-11-16T19:23:42.830Z,84.92
2022-11-16T19:26:10.002Z,84.76
2022-11-16T19:28:38.019Z,84.72
2022-11-16T19:31:14.955Z,84.80
2022-11-16T19:33:41.730Z,84.49
2022-11-16T19:36:10.371Z,84.15
2022-11-16T19:38:37.180Z,83.68
2022-11-16T19:41:03.898Z,84.09
2022-11-16T19:43:30.420Z,84.48
2022-11-16T19:46:05.429Z,84.64
2022-11-16T19:48:33.028Z,84.33
2022-11-16T19:51:33.027Z,84.48
2022-11-16T19:54:01.358Z,84.13
2022-11-16T19:56:28.563Z,83.92
2022-11-16T19:58:55.237Z,83.51
2022-11-16T20:01:27.855Z,83.14
2022-11-16T20:03:58.217Z,83.36
2022-11-16T20:06:35.528Z,83.44
2022-11-16T20:09:08.561Z,84.03
2022-11-16T20:11:37.078Z,84.10
2022-11-16T20:14:05.297Z,84.21
2022-11-16T20:16:38.628Z,83.97
2022-11-16T20:19:07.193Z,85.01
2022-11-16T20:21:36.152Z,84.53
2022-11-16T20:24:06.719Z,84.24
2022-11-16T20:26:35.096Z,84.33
2022-11-16T20:29:01.610Z,83.66
2022-11-16T20:31:30.500Z,83.57
2022-11-16T20:34:05.242Z,83.30
2022-11-16T20:36:33.023Z,83.37
2022-11-16T20:39:00.538Z,83.52
2022-11-16T20:41:29.169Z,83.86
2022-11-16T20:43:57.436Z,83.90
2022-11-16T20:46:33.138Z,84.02
2022-11-16T20:49:01.658Z,83.99
2022-11-16T20:51:29.276Z,84.10
2022-11-16T20:53:56.038Z,84.79
2022-11-16T20:56:22.575Z,84.48
2022-11-16T20:58:49.432Z,84.57
2022-11-16T21:01:28.530Z,83.93
2022-11-16T21:03:56.104Z,84.22
2022-11-16T21:06:23.149Z,84.73
2022-11-16T21:08:49.726Z,84.37
2022-11-16T21:11:25.289Z,84.41
2022-11-16T21:14:11.151Z,83.72
2022-11-16T21:16:38.143Z,83.46
2022-11-16T21:19:05.705Z,83.60
2022-11-16T21:21:32.636Z,83.94
2022-11-16T21:23:59.409Z,84.12
2022-11-16T21:26:28.295Z,83.93
2022-11-16T21:28:55.704Z,84.38
2022-11-16T21:31:27.960Z,84.40
2022-11-16T21:33:54.652Z,83.89
2022-11-16T21:36:23.248Z,84.09
2022-11-16T21:38:50.032Z,83.92
2022-11-16T21:41:18.821Z,84.16
2022-11-16T21:43:45.458Z,83.70
2022-11-16T21:46:16.750Z,83.67
2022-11-16T21:48:44.075Z,83.84
2022-11-16T21:51:16.051Z,83.71
2022-11-16T21:53:42.855Z,83.65
2022-11-16T21:56:17.879Z,83.73
2022-11-16T21:58:45.064Z,83.77
2022-11-16T22:01:12.664Z,84.12
2022-11-16T22:03:39.350Z,83.81
2022-11-16T22:06:26.214Z,84.16
2022-11-16T22:08:52.842Z,83.75
2022-11-16T22:11:21.984Z,84.65
2022-11-16T22:13:49.438Z,84.65
2022-11-16T22:16:17.151Z,84.42
2022-11-16T22:18:43.994Z,83.60
2022-11-16T22:21:11.084Z,83.48
2022-11-16T22:23:38.189Z,83.05
2022-11-16T22:26:10.298Z,83.64
2022-11-16T22:28:37.434Z,83.74
2022-11-16T22:31:12.614Z,83.56
2022-11-16T22:33:39.460Z,83.61
2022-11-16T22:36:09.131Z,83.25
2022-11-16T22:38:36.335Z,83.46
2022-11-16T22:41:02.878Z,83.91
2022-11-16T22:43:30.669Z,83.69
2022-11-16T22:45:58.915Z,83.48
2022-11-16T22:48:33.425Z,83.65
2022-11-16T22:51:04.901Z,83.30
2022-11-16T22:53:31.465Z,83.32
2022-11-16T22:56:06.156Z,82.93
2022-11-16T22:58:32.943Z,82.89
2022-11-16T23:00:59.375Z,83.03
2022-11-16T23:03:25.886Z,82.70
2022-11-16T23:05:52.358Z,82.85
2022-11-16T23:08:24.657Z,83.35
2022-11-16T23:11:40.325Z,83.85
2022-11-16T23:14:32.106Z,84.24
2022-11-16T23:16:58.886Z,84.20
2022-11-16T23:19:44.373Z,84.06
2022-11-16T23:22:32.771Z,84.04
2022-11-16T23:25:18.688Z,83.68
2022-11-16T23:27:50.829Z,83.84
2022-11-16T23:30:17.657Z,83.37
2022-11-16T23:32:44.129Z,83.21
2022-11-16T23:35:11.185Z,83.10
2022-11-16T23:38:01.696Z,83.16
2022-11-16T23:40:39.747Z,82.95
2022-11-16T23:43:27.938Z,82.56
2022-11-16T23:45:54.366Z,82.78
2022-11-16T23:48:20.802Z,83.30
2022-11-16T23:50:47.338Z,83.28
2022-11-16T23:53:14.213Z,83.54
2022-11-16T23:55:40.949Z,83.72
2022-11-16T23:58:12.539Z,83.68
